Relevés horaires Mottec (Suisse)


Relevés horaires à Mottec - Vendredi 06 Juill. 2018
Heure UTC1 Température [°C] Vent [km/h] Hum. [%] Pres.4 [hPa] Visi. [Km] Nébu. [octa] Préc.5 [mm] Cond.
2m. Res. Ros. Dir.2 Vit. Moy. Raf.3
23:00 8.6 8 8.3 S 5.6 -- -- 98 850 -- -- -- --
22:00 8.9 8.9 8.8 S 3.7 -- -- 99 850 -- -- -- --
21:00 9.8 9.8 9.7 SSE 3.7 -- 7.4 99 850(0.9/3h) -- -- -- --
20:00 11.0 10.7 10.9 S 5.6 -- -- 99 850 -- -- -- --
19:00 11.3 11.3 10.9 SO 1.9 -- -- 97 850 -- -- -- --
18:00 12.2 12.2 11.3 SSO 1.9 -- 29.6 94 850(0.7/3h) -- -- 0.8/12h
--
17:00 13.1 13.1 11.7 S 3.7 -- -- 91 850 -- -- -- --
16:00 13.4 13.4 12.3 NO 1.9 -- -- 93 850 -- -- -- --
15:00 13.6 13.6 11.6 SO 1.9 -- 29.6 88 850(0.7/3h) -- -- -- --
14:00 12.9 12.9 11.8 NNO 3.7 -- -- 93 850 -- -- -- --
13:00 14.7 14.1 10.6 NNO 11.1 -- -- 76 850 -- -- -- --
12:00 13.9 13.9 9.8 S 1.9 -- 18.5 76 850(0.3/3h) -- -- 0/6h
--
11:00 12.1 12.1 10.2 N 3.7 -- -- 88 850 -- -- -- --
10:00 11.4 11.2 10.0 N 5.6 -- -- 91 850 -- -- -- --
09:00 11.4 11.2 10.9 N 5.6 -- 18.5 97 850(0.8/3h) -- -- -- --
08:00 10.4 10 10.3 NNO 5.6 -- -- 99 850 -- -- -- --
07:00 11.1 11.1 11.0 E 1.9 -- -- 99 850 -- -- -- --
06:00 10.0 10.0 9.9 S 1.9 -- 5.6 99 850(0.7/3h) -- -- 4/12h
13.6/24h
--
05:00 9.4 9.4 9.3 S 3.7 -- -- 99 850 -- -- -- --
04:00 9.1 9.1 9.0 S 1.9 -- -- 99 850 -- -- -- --
03:00 9.4 9.4 9.3 SSE 3.7 -- 5.6 99 850(0.0/3h) -- -- -- --
02:00 9.5 9.5 9.4 S 1.9 -- -- 99 850 -- -- -- --
01:00 9.5 9.5 9.4 S 1.9 -- -- 99 850 -- -- -- --
00:00 9.4 9.4 9.3 SSE 1.9 -- 16.7 99 850(-0.1/3h) -- -- 3/6h
--

1 Coordinated Universal Time. Actuellement il est 18:00 locale et 16:00 UTC.

2 Le vent souffle depuis la direction indiquée vers la direction oposée.

3 Les rafales max. sont disponible 40 min après l'heure du relevé.

4 Pour les stations d'altitude (plus de 600m) le géopotentiel du niveau le plus proche de la pression obligatoire est indiqué.

5 Les stations disposant d'un diffuseur peuvent indiquer "trace". Cela signifie que des précipitations ont touchés le sol mais que la quantité est inférieure à 0.1 mm.

Récapitulatif de la journée
Température [°C] Vent [km/h] Ensoleillement4 [h] Precipitations totale5 [mm] Pression [Hpa]
Min1 Max.2 Moy.3 Max. Min Max.
8.9 15.9 0 29.6 0 h 24 min 0.8 850.0 850.0

1 Température minimale relevée entre 18:00 UTC la veille et 18:00 UTC le jour donné.

2 Température maximale relevée entre 06:00 UTC le jour donné et 06:00 UTC le lendemain.

3 Vent moyen de la journée basé sur les relevés horaires.

4 Ensoleillement en heures relevé entre 06:00 UTC la veille et 06:00 UTC le jour donné.

5 Précipitations totales tombées entre 06:00 UTC la jour donné et 06:00 UTC le lendemain.

Graphiques horaires